< < Back
Terminal Aerodrome Forecast


Current Version              Previous Versions:   1  2  3  4  5  6  7  8  9  

Terminal Aerodrome Forecast

061
FTUS42 KMLB 022331
TAFDAB
TAF
KDAB 022331Z 0300/0324 19005KT P6SM SCT080 OVC120
     FM031400 21011KT P6SM SCT030 OVC120
     FM031700 23014G21KT P6SM VCTS SCT030CB BKN080
      TEMPO 0318/0321 3SM TSRA BKN020CB OVC040
     FM032200 25008KT P6SM SCT040 OVC080=



Latest METAR

830
SAUS80 KWBC 032300
MTRDAB
METAR KDAB 032253Z 22014G19KT 10SM SCT023 SCT065 BKN080 BKN250 27/22
A2993 RMK AO2 SLP135 T02720222


USA.gov is the U.S. government's official web portal to all federal, state and local government web resources and services.